Time;durP1;ratioP1;P1;durP2;ratioP2;P2;SDS_P1;SDS_P2;PMS_P1;PMS_P2;Temp;Humidity;BMP_temperature;BMP_pressure;BME280_temperature;BME280_humidity;BME280_pressure;Samples;Min_cycle;Max_cycle;Signal;HPM_P1;HPM_P2
2021/10/10 00:00:38;;;;;;;15.13;11.88;;;11.00;99.90;;;;;;5011061;28;20037;-69
2021/10/10 00:03:04;;;;;;;16.45;11.52;;;10.90;99.90;;;;;;5011961;28;20112;-70
2021/10/10 00:05:29;;;;;;;17.98;13.18;;;10.90;99.90;;;;;;5012146;28;20056;-69
2021/10/10 00:07:55;;;;;;;20.10;11.40;;;10.80;99.90;;;;;;5012118;28;20101;-69
2021/10/10 00:10:21;;;;;;;19.98;12.32;;;10.80;99.90;;;;;;5012180;28;20106;-69
2021/10/10 00:12:46;;;;;;;17.52;12.38;;;10.80;99.90;;;;;;5011850;28;20084;-69
2021/10/10 00:15:13;;;;;;;24.48;12.13;;;10.80;99.90;;;;;;5011497;28;20026;-69
2021/10/10 00:17:41;;;;;;;18.08;13.23;;;10.80;99.90;;;;;;5010640;28;20420;-69
2021/10/10 00:20:08;;;;;;;20.33;12.00;;;10.80;99.90;;;;;;5011683;28;20022;-69
2021/10/10 00:22:34;;;;;;;19.92;12.77;;;10.80;99.90;;;;;;5010889;28;20045;-69
2021/10/10 00:24:59;;;;;;;19.75;12.52;;;10.90;99.90;;;;;;5012531;28;20340;-69
2021/10/10 00:27:25;;;;;;;17.98;12.85;;;10.80;99.90;;;;;;5010163;28;20037;-69
2021/10/10 00:29:51;;;;;;;20.95;12.73;;;10.80;99.90;;;;;;5012226;28;20026;-69
2021/10/10 00:32:17;;;;;;;19.63;13.18;;;10.70;99.90;;;;;;5011704;28;20066;-69
2021/10/10 00:34:43;;;;;;;19.10;12.68;;;10.60;99.90;;;;;;5010588;28;20030;-69
2021/10/10 00:37:09;;;;;;;21.15;12.55;;;10.50;99.90;;;;;;5010989;28;20579;-69
2021/10/10 00:39:35;;;;;;;22.80;12.77;;;10.60;99.90;;;;;;5010358;28;20187;-69
2021/10/10 00:42:00;;;;;;;22.35;12.48;;;10.40;99.90;;;;;;5012138;28;20053;-68
2021/10/10 00:44:26;;;;;;;16.80;11.80;;;10.50;99.90;;;;;;5010953;28;20033;-69
2021/10/10 00:46:53;;;;;;;18.13;11.48;;;10.50;99.90;;;;;;5011502;28;20036;-69
2021/10/10 00:49:18;;;;;;;18.73;12.35;;;10.50;99.90;;;;;;5011107;28;20115;-69
2021/10/10 00:51:45;;;;;;;28.48;13.48;;;10.50;99.90;;;;;;5011567;28;20061;-68
2021/10/10 00:54:14;;;;;;;17.42;11.77;;;10.50;99.90;;;;;;5010810;28;20412;-67
2021/10/10 00:56:43;;;;;;;18.38;12.57;;;10.50;99.90;;;;;;5010270;28;20027;-67
2021/10/10 00:59:12;;;;;;;18.95;12.48;;;10.50;99.90;;;;;;5011121;28;20037;-68
2021/10/10 01:01:37;;;;;;;19.25;13.18;;;10.40;99.90;;;;;;5009824;28;20026;-68
2021/10/10 01:04:03;;;;;;;20.33;12.63;;;10.40;99.90;;;;;;5011294;28;20046;-69
2021/10/10 01:06:29;;;;;;;22.00;11.18;;;10.30;99.90;;;;;;5011038;28;20030;-67
2021/10/10 01:08:55;;;;;;;20.77;12.95;;;10.30;99.90;;;;;;5011557;28;20510;-67
2021/10/10 01:11:21;;;;;;;20.70;13.98;;;10.20;99.90;;;;;;5009434;28;20026;-68
2021/10/10 01:13:48;;;;;;;21.92;12.93;;;10.20;99.90;;;;;;5010968;28;20026;-68
2021/10/10 01:16:15;;;;;;;21.75;14.48;;;10.20;99.90;;;;;;5008618;28;20031;-68
2021/10/10 01:18:41;;;;;;;19.40;12.07;;;10.20;99.90;;;;;;5009653;28;20097;-69
2021/10/10 01:21:07;;;;;;;20.70;12.60;;;10.20;99.90;;;;;;5009863;28;20022;-68
2021/10/10 01:23:32;;;;;;;21.90;12.55;;;10.20;99.90;;;;;;5008612;28;20124;-68
2021/10/10 01:25:58;;;;;;;25.15;13.77;;;10.00;99.90;;;;;;5011366;28;20022;-68
2021/10/10 01:28:24;;;;;;;22.15;13.45;;;9.90;99.90;;;;;;5010725;28;20036;-68
2021/10/10 01:30:49;;;;;;;22.33;13.82;;;9.90;99.90;;;;;;5011763;28;20495;-69
2021/10/10 01:33:15;;;;;;;21.20;13.20;;;9.90;99.90;;;;;;5010496;28;20026;-69
2021/10/10 01:35:41;;;;;;;20.63;13.77;;;9.80;99.90;;;;;;5011120;28;20452;-67
2021/10/10 01:38:08;;;;;;;19.70;12.40;;;9.90;99.90;;;;;;5010958;28;20061;-68
2021/10/10 01:40:35;;;;;;;17.58;11.82;;;9.90;99.90;;;;;;5010551;28;20368;-68
2021/10/10 01:43:05;;;;;;;23.38;13.25;;;9.90;99.90;;;;;;5009392;28;20058;-68
2021/10/10 01:45:30;;;;;;;24.38;14.52;;;9.80;99.90;;;;;;5009002;28;20022;-68
2021/10/10 01:47:56;;;;;;;21.48;13.95;;;9.80;99.90;;;;;;5009600;28;20439;-69
2021/10/10 01:50:22;;;;;;;19.50;13.73;;;9.70;99.90;;;;;;5010286;28;20051;-69
2021/10/10 01:52:50;;;;;;;23.00;14.75;;;9.70;99.90;;;;;;5009491;28;20072;-69
2021/10/10 01:55:16;;;;;;;20.10;12.25;;;9.70;99.90;;;;;;5010304;28;20109;-70
2021/10/10 01:57:42;;;;;;;17.95;11.55;;;9.70;99.90;;;;;;5009327;28;20061;-68
2021/10/10 02:00:09;;;;;;;19.75;12.27;;;9.60;99.90;;;;;;5009357;28;20393;-68
2021/10/10 02:02:35;;;;;;;21.45;12.68;;;9.70;99.90;;;;;;5010802;28;20140;-68
2021/10/10 02:05:01;;;;;;;18.10;12.43;;;9.60;99.90;;;;;;5009071;28;20057;-68
2021/10/10 02:07:26;;;;;;;21.05;12.02;;;9.70;99.90;;;;;;5008630;28;20065;-68
2021/10/10 02:09:52;;;;;;;21.92;11.60;;;9.60;99.90;;;;;;5010210;28;20022;-68
2021/10/10 02:12:18;;;;;;;20.88;13.07;;;9.50;99.90;;;;;;5009678;28;20387;-68
2021/10/10 02:14:43;;;;;;;21.05;12.85;;;9.40;99.90;;;;;;5010509;28;20026;-68
2021/10/10 02:17:09;;;;;;;15.82;11.10;;;9.40;99.90;;;;;;5010648;28;20044;-68
2021/10/10 02:19:35;;;;;;;22.13;12.55;;;9.50;99.90;;;;;;5008581;28;20121;-68
2021/10/10 02:22:01;;;;;;;19.17;11.85;;;9.50;99.90;;;;;;5008938;28;20080;-68
2021/10/10 02:24:27;;;;;;;19.98;13.27;;;9.50;99.90;;;;;;5008539;28;20384;-68
2021/10/10 02:26:53;;;;;;;19.95;12.10;;;9.60;99.90;;;;;;5008790;28;20128;-68
2021/10/10 02:29:19;;;;;;;19.73;13.40;;;9.50;99.90;;;;;;5008563;28;20033;-68
2021/10/10 02:31:45;;;;;;;26.35;13.85;;;9.60;99.90;;;;;;5009338;28;20125;-68
2021/10/10 02:34:12;;;;;;;17.60;12.60;;;9.50;99.90;;;;;;5010354;28;20065;-68
2021/10/10 02:36:39;;;;;;;32.63;15.27;;;9.50;99.90;;;;;;5010217;28;20033;-68
2021/10/10 02:39:05;;;;;;;25.30;13.63;;;9.40;99.90;;;;;;5014384;28;20040;-68
2021/10/10 02:41:31;;;;;;;25.35;15.00;;;9.50;99.90;;;;;;5013426;28;20022;-67
2021/10/10 02:43:57;;;;;;;19.02;13.27;;;9.50;99.90;;;;;;5013828;28;20049;-67
2021/10/10 02:46:22;;;;;;;20.70;14.20;;;9.50;99.90;;;;;;5013385;28;20416;-67
2021/10/10 02:48:48;;;;;;;21.25;13.90;;;9.40;99.90;;;;;;5012537;28;20386;-67
2021/10/10 02:51:14;;;;;;;19.60;13.65;;;9.30;99.90;;;;;;5013066;28;20034;-68
2021/10/10 02:53:39;;;;;;;23.50;14.32;;;9.30;99.90;;;;;;5012466;28;20368;-67
2021/10/10 02:56:05;;;;;;;21.27;14.82;;;9.30;99.90;;;;;;5014073;28;20030;-67
2021/10/10 02:58:32;;;;;;;21.67;14.75;;;9.20;99.90;;;;;;5013088;28;20130;-67
2021/10/10 03:00:57;;;;;;;19.77;14.05;;;9.20;99.90;;;;;;5013680;28;20078;-67
2021/10/10 03:03:23;;;;;;;26.05;14.30;;;9.20;99.90;;;;;;5011907;28;20052;-67
2021/10/10 03:05:48;;;;;;;21.55;13.63;;;9.20;99.90;;;;;;5013417;28;20504;-67
2021/10/10 03:08:14;;;;;;;24.88;13.77;;;9.10;99.90;;;;;;5013253;28;20046;-70
2021/10/10 03:10:40;;;;;;;24.63;14.52;;;9.20;99.90;;;;;;5012228;28;20506;-67
2021/10/10 03:13:06;;;;;;;21.70;14.95;;;9.20;99.90;;;;;;5012253;28;20166;-67
2021/10/10 03:15:33;;;;;;;18.77;13.50;;;9.10;99.90;;;;;;5012780;28;20459;-67
2021/10/10 03:17:59;;;;;;;21.20;14.25;;;9.20;99.90;;;;;;5012007;28;20026;-67
2021/10/10 03:20:25;;;;;;;21.10;14.57;;;9.20;99.90;;;;;;5013349;28;20034;-67
2021/10/10 03:22:50;;;;;;;24.27;13.50;;;9.10;99.90;;;;;;5013995;28;20041;-67
2021/10/10 03:25:16;;;;;;;21.02;13.68;;;9.10;99.90;;;;;;5011678;28;20109;-66
2021/10/10 03:27:42;;;;;;;22.38;14.15;;;9.10;99.90;;;;;;5013603;28;20030;-67
2021/10/10 03:30:08;;;;;;;19.00;12.90;;;9.00;99.90;;;;;;5012100;28;20526;-67
2021/10/10 03:32:33;;;;;;;20.80;13.38;;;8.90;99.90;;;;;;5012724;28;20507;-67
2021/10/10 03:34:59;;;;;;;21.58;13.90;;;8.80;99.90;;;;;;5013288;28;20026;-67
2021/10/10 03:37:25;;;;;;;23.52;14.05;;;8.90;99.90;;;;;;5012331;28;20076;-67
2021/10/10 03:39:50;;;;;;;23.17;13.55;;;8.80;99.90;;;;;;5012075;28;20041;-68
2021/10/10 03:42:16;;;;;;;21.98;12.95;;;8.80;99.90;;;;;;5012697;28;20022;-71
2021/10/10 03:44:42;;;;;;;19.83;12.63;;;8.90;99.90;;;;;;5012798;28;20032;-68
2021/10/10 03:47:08;;;;;;;21.13;12.73;;;8.80;99.90;;;;;;5013040;28;20045;-67
2021/10/10 03:49:34;;;;;;;20.95;13.38;;;8.60;99.90;;;;;;5011637;28;20467;-67
2021/10/10 03:52:00;;;;;;;19.27;12.93;;;8.60;99.90;;;;;;5011804;28;20026;-68
2021/10/10 03:56:53;;;;;;;20.13;13.13;;;8.60;99.90;;;;;;5012771;28;20135;-67
2021/10/10 03:59:23;;;;;;;23.50;13.02;;;8.60;99.90;;;;;;5012199;28;20475;-68
2021/10/10 04:01:49;;;;;;;21.63;13.15;;;8.60;99.90;;;;;;5012950;28;20033;-67
2021/10/10 04:04:16;;;;;;;20.58;12.30;;;8.60;99.90;;;;;;5011087;28;20509;-68
2021/10/10 04:06:42;;;;;;;20.33;12.63;;;8.60;99.90;;;;;;5013120;28;20030;-67
2021/10/10 04:09:08;;;;;;;21.65;11.98;;;8.60;99.90;;;;;;5011085;28;20121;-67
2021/10/10 04:11:33;;;;;;;19.67;12.98;;;8.60;99.90;;;;;;5011718;28;20026;-67
2021/10/10 04:13:59;;;;;;;17.50;11.52;;;8.60;99.90;;;;;;5012352;28;20033;-67
2021/10/10 04:16:25;;;;;;;20.95;13.43;;;8.60;99.90;;;;;;5010426;28;20026;-67
2021/10/10 04:18:50;;;;;;;17.35;12.75;;;8.60;99.90;;;;;;5012637;28;20034;-68
2021/10/10 04:21:16;;;;;;;19.75;12.32;;;8.50;99.90;;;;;;5011033;28;20125;-67
2021/10/10 04:23:41;;;;;;;21.98;12.95;;;8.60;99.90;;;;;;5011967;28;20026;-67
2021/10/10 04:26:07;;;;;;;15.98;11.48;;;8.50;99.90;;;;;;5012053;28;20387;-67
2021/10/10 04:28:33;;;;;;;22.55;12.70;;;8.70;99.90;;;;;;5011524;28;20461;-67
2021/10/10 04:30:58;;;;;;;20.92;12.27;;;8.50;99.90;;;;;;5012181;28;20031;-68
2021/10/10 04:33:24;;;;;;;17.85;12.13;;;8.50;99.90;;;;;;5011426;28;20105;-67
2021/10/10 04:35:49;;;;;;;20.10;12.52;;;8.70;99.90;;;;;;5011102;28;20163;-67
2021/10/10 04:38:16;;;;;;;19.48;13.02;;;8.70;99.90;;;;;;5012078;28;20448;-67
2021/10/10 04:40:42;;;;;;;20.90;14.07;;;8.60;99.90;;;;;;5011644;28;20057;-68
2021/10/10 04:43:09;;;;;;;18.58;13.00;;;8.60;99.90;;;;;;5010880;28;20402;-68
2021/10/10 04:45:35;;;;;;;19.17;12.82;;;8.50;99.90;;;;;;5010167;28;20064;-68
2021/10/10 04:48:01;;;;;;;21.58;12.52;;;8.30;99.90;;;;;;5010555;28;20116;-69
2021/10/10 04:50:27;;;;;;;20.05;13.57;;;8.30;99.90;;;;;;5010159;28;20168;-68
2021/10/10 04:52:52;;;;;;;20.23;12.10;;;8.30;99.90;;;;;;5012154;28;20050;-68
2021/10/10 04:55:18;;;;;;;23.88;14.73;;;8.40;99.90;;;;;;5010685;28;20030;-68
2021/10/10 04:57:44;;;;;;;24.33;13.95;;;8.40;99.90;;;;;;5010048;28;20033;-68
2021/10/10 05:00:10;;;;;;;22.23;14.50;;;8.30;99.90;;;;;;5010332;28;20483;-68
2021/10/10 05:02:36;;;;;;;22.00;13.98;;;8.30;99.90;;;;;;5011320;28;20030;-68
2021/10/10 05:05:02;;;;;;;18.52;12.93;;;8.20;99.90;;;;;;5010035;28;20058;-68
2021/10/10 05:07:29;;;;;;;21.80;13.65;;;8.20;99.90;;;;;;5009565;28;20364;-68
2021/10/10 05:09:54;;;;;;;22.30;13.38;;;8.20;99.90;;;;;;5011565;28;20424;-68
2021/10/10 05:12:21;;;;;;;20.25;13.80;;;8.20;99.90;;;;;;5011645;28;20085;-68
2021/10/10 05:14:46;;;;;;;20.48;13.73;;;8.20;99.90;;;;;;5011945;28;20025;-69
2021/10/10 05:17:12;;;;;;;19.08;13.50;;;8.20;99.90;;;;;;5011688;28;20125;-68
2021/10/10 05:19:38;;;;;;;18.25;12.40;;;8.10;99.90;;;;;;5011156;28;20030;-68
2021/10/10 05:22:04;;;;;;;18.98;12.52;;;8.10;99.90;;;;;;5011309;28;20108;-68
2021/10/10 05:24:31;;;;;;;17.80;13.25;;;8.20;99.90;;;;;;5010953;28;20411;-68
2021/10/10 05:26:58;;;;;;;19.98;13.07;;;8.20;99.90;;;;;;5011570;28;20030;-68
2021/10/10 05:29:24;;;;;;;20.80;13.43;;;8.10;99.90;;;;;;5010863;28;20427;-67
2021/10/10 05:31:50;;;;;;;23.45;12.82;;;8.20;99.90;;;;;;5011560;28;20037;-67
2021/10/10 05:34:15;;;;;;;19.38;13.73;;;8.20;99.90;;;;;;5010965;28;20218;-66
2021/10/10 05:36:41;;;;;;;24.13;13.15;;;8.20;99.90;;;;;;5009128;28;20038;-66
2021/10/10 05:39:07;;;;;;;23.95;12.88;;;8.20;99.90;;;;;;5011254;28;20431;-67
2021/10/10 05:41:32;;;;;;;20.65;13.20;;;8.20;99.90;;;;;;5010271;28;20037;-67
2021/10/10 05:43:58;;;;;;;21.55;13.52;;;8.10;99.90;;;;;;5009653;28;20026;-67
2021/10/10 05:46:23;;;;;;;20.75;13.25;;;8.10;99.90;;;;;;5010497;28;20030;-69
2021/10/10 05:48:49;;;;;;;23.58;13.95;;;8.00;99.90;;;;;;5009496;28;20022;-67
2021/10/10 05:51:15;;;;;;;20.50;13.30;;;8.10;99.90;;;;;;5011219;28;20033;-67
2021/10/10 05:53:40;;;;;;;22.42;13.35;;;8.00;99.90;;;;;;5009157;28;20076;-67
2021/10/10 05:56:06;;;;;;;21.88;13.82;;;8.00;99.90;;;;;;5009635;28;20037;-67
2021/10/10 05:58:38;;;;;;;19.25;13.35;;;8.00;99.90;;;;;;5010302;28;20068;-68
2021/10/10 06:01:04;;;;;;;;;;;8.10;99.90;;;;;;5011695;28;20128;-68
2021/10/10 06:03:30;;;;;;;21.10;13.40;;;8.10;99.90;;;;;;5010464;28;19913;-68
2021/10/10 06:05:55;;;;;;;21.73;13.57;;;8.00;99.90;;;;;;5009417;28;20052;-67
2021/10/10 06:08:21;;;;;;;21.42;12.70;;;8.00;99.90;;;;;;5009417;28;20463;-68
2021/10/10 06:10:47;;;;;;;18.77;12.27;;;8.00;99.90;;;;;;5009340;28;20064;-67
2021/10/10 06:13:12;;;;;;;22.13;11.73;;;8.00;99.90;;;;;;5014732;28;20099;-68
2021/10/10 06:15:40;;;;;;;19.52;12.60;;;8.10;99.90;;;;;;5013166;28;20030;-67
2021/10/10 06:18:08;;;;;;;22.67;12.93;;;8.20;99.90;;;;;;4997493;28;20541;-68
2021/10/10 06:20:38;;;;;;;22.60;11.73;;;8.30;99.90;;;;;;5013845;28;20041;-68
2021/10/10 06:23:04;;;;;;;19.13;12.57;;;8.40;99.90;;;;;;5014863;28;20057;-68
2021/10/10 06:25:29;;;;;;;20.40;13.00;;;8.40;99.90;;;;;;5012824;28;20064;-68
2021/10/10 06:27:55;;;;;;;20.08;12.35;;;8.30;99.90;;;;;;5013116;28;20030;-68
2021/10/10 06:30:21;;;;;;;22.00;12.73;;;8.40;99.90;;;;;;5012948;28;20034;-67
2021/10/10 06:32:46;;;;;;;18.27;12.40;;;8.50;99.90;;;;;;5014195;28;20050;-68
2021/10/10 06:35:12;;;;;;;19.30;10.63;;;8.70;99.90;;;;;;5013467;28;20025;-68
2021/10/10 06:37:38;;;;;;;22.30;12.82;;;9.10;99.90;;;;;;5012836;28;20030;-68
2021/10/10 06:40:04;;;;;;;19.00;11.60;;;9.30;99.90;;;;;;5013206;28;20040;-68
2021/10/10 06:42:30;;;;;;;19.13;12.27;;;9.50;99.90;;;;;;5013572;28;20030;-68
2021/10/10 06:44:55;;;;;;;17.08;10.30;;;9.70;99.90;;;;;;5012839;28;20431;-68
2021/10/10 06:47:21;;;;;;;17.92;10.93;;;9.90;99.90;;;;;;5012966;28;20037;-68
2021/10/10 06:49:47;;;;;;;22.30;12.18;;;10.30;99.90;;;;;;5013582;28;20029;-68
2021/10/10 06:52:13;;;;;;;18.17;11.18;;;10.60;99.90;;;;;;5012757;28;20034;-68
2021/10/10 06:54:40;;;;;;;17.17;11.35;;;10.90;99.90;;;;;;5014105;28;20069;-68
2021/10/10 06:57:06;;;;;;;18.30;11.50;;;11.00;99.90;;;;;;5012595;28;20450;-68
2021/10/10 06:59:32;;;;;;;17.50;11.57;;;11.30;99.90;;;;;;5013457;28;20097;-67
2021/10/10 07:01:58;;;;;;;18.20;11.32;;;11.30;99.90;;;;;;5013764;28;20042;-68
2021/10/10 07:04:23;;;;;;;23.55;12.88;;;11.40;99.90;;;;;;5011883;28;20085;-68
2021/10/10 07:06:49;;;;;;;20.55;10.88;;;11.80;99.90;;;;;;5011962;28;20381;-68
2021/10/10 07:09:15;;;;;;;17.73;11.35;;;12.00;99.90;;;;;;5014026;28;20099;-68
2021/10/10 07:11:41;;;;;;;19.10;12.18;;;12.20;99.90;;;;;;5012925;28;20072;-67
2021/10/10 07:14:07;;;;;;;20.75;11.95;;;12.40;99.90;;;;;;5013432;28;20037;-67
2021/10/10 07:16:34;;;;;;;22.23;12.02;;;12.60;99.40;;;;;;5011628;28;20029;-67
2021/10/10 07:19:00;;;;;;;20.40;12.48;;;12.40;99.60;;;;;;5013305;28;20391;-67
2021/10/10 07:26:22;;;;;;;16.13;10.95;;;12.80;98.40;;;;;;5013564;28;20026;-68
2021/10/10 07:28:48;;;;;;;15.48;11.20;;;12.70;98.60;;;;;;5011233;28;20026;-69
2021/10/10 07:31:13;;;;;;;18.67;12.13;;;12.80;98.60;;;;;;5012148;28;20560;-68
2021/10/10 07:33:40;;;;;;;16.98;11.02;;;13.00;98.30;;;;;;5012854;28;20455;-68
2021/10/10 07:36:06;;;;;;;17.63;10.95;;;13.30;97.90;;;;;;5013208;28;20092;-68
2021/10/10 07:38:32;;;;;;;17.00;11.20;;;13.50;97.10;;;;;;5011229;28;20029;-68
2021/10/10 07:41:03;;;;;;;17.60;10.68;;;13.70;96.70;;;;;;5012081;28;20048;-68
2021/10/10 07:43:30;;;;;;;14.45;9.75;;;14.00;96.30;;;;;;5012961;28;20220;-68
2021/10/10 07:46:05;;;;;;;17.63;9.20;;;13.90;95.40;;;;;;5011726;28;20084;-68
2021/10/10 07:48:31;;;;;;;14.18;8.52;;;14.30;95.20;;;;;;5011177;28;20076;-76
2021/10/10 07:50:56;;;;;;;15.00;9.45;;;14.50;94.70;;;;;;5012865;28;20332;-68
2021/10/10 07:53:22;;;;;;;12.65;8.80;;;14.60;94.80;;;;;;5012899;28;20049;-69
2021/10/10 07:55:47;;;;;;;16.60;8.20;;;15.00;93.70;;;;;;5012349;28;20022;-68
2021/10/10 07:58:13;;;;;;;16.77;9.13;;;15.10;93.90;;;;;;5012662;28;20129;-68
2021/10/10 08:00:39;;;;;;;14.40;9.30;;;15.20;92.50;;;;;;5011923;28;20360;-68
2021/10/10 08:03:04;;;;;;;16.15;8.77;;;15.30;92.90;;;;;;5012863;28;20468;-68
2021/10/10 08:05:39;;;;;;;12.65;9.45;;;15.80;92.80;;;;;;5012424;28;20483;-67
2021/10/10 08:08:05;;;;;;;15.43;9.57;;;16.00;91.60;;;;;;5011616;28;20030;-68
2021/10/10 08:10:32;;;;;;;16.65;9.32;;;16.00;92.10;;;;;;5012275;28;20460;-68
2021/10/10 08:12:57;;;;;;;16.08;9.40;;;16.20;91.80;;;;;;5012529;28;20026;-68
2021/10/10 08:15:23;;;;;;;12.80;8.52;;;16.30;91.40;;;;;;5011001;28;20033;-67
2021/10/10 08:17:49;;;;;;;13.98;9.07;;;16.30;91.30;;;;;;5010321;28;20041;-67
2021/10/10 08:20:14;;;;;;;15.57;9.57;;;16.30;91.00;;;;;;5012231;28;20053;-68
2021/10/10 08:22:41;;;;;;;11.45;8.15;;;16.10;91.40;;;;;;5011518;28;20375;-69
2021/10/10 08:25:11;;;;;;;10.60;8.73;;;16.50;90.50;;;;;;5010752;28;20333;-68
2021/10/10 08:27:38;;;;;;;11.10;7.95;;;16.80;90.40;;;;;;5011447;28;20050;-69
2021/10/10 08:30:06;;;;;;;11.27;7.88;;;16.60;89.90;;;;;;5010738;28;20076;-68
2021/10/10 08:32:32;;;;;;;11.55;8.15;;;16.30;90.10;;;;;;5011675;28;20038;-68
2021/10/10 08:34:59;;;;;;;14.15;8.18;;;16.60;90.30;;;;;;5010029;28;20071;-69
2021/10/10 08:37:24;;;;;;;15.65;9.25;;;16.90;89.20;;;;;;5010346;28;20037;-68
2021/10/10 08:39:50;;;;;;;20.02;8.48;;;16.20;90.20;;;;;;5009774;28;20081;-67
2021/10/10 08:42:21;;;;;;;15.48;7.97;;;16.50;90.70;;;;;;5010472;28;20025;-68
2021/10/10 08:44:51;;;;;;;23.45;7.93;;;17.20;88.70;;;;;;5011513;28;20064;-68
2021/10/10 08:47:18;;;;;;;11.70;8.02;;;17.30;88.90;;;;;;5011685;28;20042;-67
2021/10/10 08:49:45;;;;;;;10.82;7.45;;;17.20;87.30;;;;;;5011037;28;20032;-68
2021/10/10 08:52:12;;;;;;;14.38;7.57;;;17.40;88.80;;;;;;5009894;28;20112;-68
2021/10/10 08:54:38;;;;;;;11.38;7.30;;;18.00;88.00;;;;;;5009567;28;20424;-70
2021/10/10 08:57:10;;;;;;;12.90;7.55;;;18.00;86.50;;;;;;5011685;28;20407;-67
2021/10/10 08:59:41;;;;;;;10.70;7.70;;;18.10;86.00;;;;;;5009205;28;20037;-69
2021/10/10 09:02:17;;;;;;;11.00;7.07;;;18.40;86.20;;;;;;5011221;28;20022;-68
2021/10/10 09:04:43;;;;;;;11.20;7.88;;;19.00;84.70;;;;;;5009477;28;20127;-70
2021/10/10 09:07:09;;;;;;;12.02;7.78;;;18.80;84.50;;;;;;5009846;28;20093;-67
2021/10/10 09:09:36;;;;;;;11.45;7.60;;;18.60;84.50;;;;;;5009604;28;20065;-77
2021/10/10 09:12:12;;;;;;;16.15;7.95;;;18.80;83.40;;;;;;5009970;28;20050;-69
2021/10/10 09:14:46;;;;;;;24.50;9.95;;;18.70;82.00;;;;;;5010695;28;20045;-68
2021/10/10 09:17:21;;;;;;;12.43;8.40;;;19.20;82.90;;;;;;5011042;28;20034;-67
2021/10/10 09:19:53;;;;;;;14.70;8.80;;;19.20;83.60;;;;;;5010575;28;20034;-68
2021/10/10 09:22:21;;;;;;;12.57;7.90;;;19.40;83.80;;;;;;5010855;28;20018;-68
2021/10/10 09:24:49;;;;;;;12.05;7.28;;;18.80;81.00;;;;;;5008807;28;20048;-68
2021/10/10 09:27:16;;;;;;;12.30;7.50;;;19.50;81.80;;;;;;5010882;28;20046;-68
2021/10/10 09:29:45;;;;;;;12.85;7.97;;;19.50;81.60;;;;;;5008518;28;20107;-69
2021/10/10 09:32:18;;;;;;;13.73;8.25;;;20.10;81.00;;;;;;5010477;28;20133;-67
2021/10/10 09:34:45;;;;;;;10.52;6.60;;;20.60;79.80;;;;;;5009591;28;20036;-68
2021/10/10 09:42:51;;;;;;;13.05;7.35;;;18.90;78.50;;;;;;5008318;28;20042;-69
2021/10/10 09:45:30;;;;;;;12.93;8.40;;;19.60;79.10;;;;;;5010138;28;20026;-68
2021/10/10 09:48:02;;;;;;;11.73;8.13;;;19.60;76.90;;;;;;5009516;28;20466;-67
2021/10/10 09:50:33;;;;;;;11.25;7.70;;;19.80;80.40;;;;;;5009499;28;20110;-67
2021/10/10 09:53:09;;;;;;;11.80;8.30;;;19.70;78.20;;;;;;5008469;28;20105;-67
2021/10/10 09:55:37;;;;;;;11.15;7.90;;;20.20;76.90;;;;;;5009309;28;20372;-68
2021/10/10 09:58:04;;;;;;;12.18;8.25;;;20.40;77.40;;;;;;5010210;28;20041;-68
2021/10/10 10:00:35;;;;;;;14.98;8.27;;;21.00;77.70;;;;;;5009037;28;20038;-68
2021/10/10 10:03:10;;;;;;;9.75;8.10;;;21.20;75.80;;;;;;5008485;28;20470;-68
2021/10/10 10:05:37;;;;;;;10.18;7.88;;;20.90;74.60;;;;;;5008314;28;20046;-69
2021/10/10 10:08:04;;;;;;;12.70;7.68;;;19.20;77.10;;;;;;5010100;28;20393;-67
2021/10/10 10:10:32;;;;;;;10.05;7.68;;;18.50;78.80;;;;;;5009946;28;20392;-68
2021/10/10 10:13:01;;;;;;;9.35;7.88;;;18.70;80.50;;;;;;5009030;28;20332;-67
2021/10/10 10:15:29;;;;;;;11.30;7.35;;;19.90;79.60;;;;;;5009379;28;20033;-67
2021/10/10 10:17:56;;;;;;;12.50;8.10;;;20.50;79.10;;;;;;5009182;28;20080;-68
2021/10/10 10:20:23;;;;;;;9.57;7.35;;;21.20;76.10;;;;;;5008249;28;20112;-68
2021/10/10 10:22:53;;;;;;;12.63;7.78;;;21.40;75.80;;;;;;5007743;28;20026;-68
2021/10/10 10:25:20;;;;;;;9.82;7.00;;;21.70;75.10;;;;;;5008346;28;20021;-68
2021/10/10 10:27:46;;;;;;;12.63;7.72;;;22.60;73.90;;;;;;5007618;28;20030;-68
2021/10/10 10:30:12;;;;;;;10.00;7.40;;;22.80;72.60;;;;;;5008008;28;20036;-67
2021/10/10 10:32:38;;;;;;;15.98;7.45;;;22.50;74.80;;;;;;5008492;28;20034;-68
2021/10/10 10:35:15;;;;;;;10.20;8.65;;;22.70;72.50;;;;;;5007815;28;20093;-68
2021/10/10 10:37:44;;;;;;;11.77;8.15;;;22.70;71.40;;;;;;5009590;28;20208;-70
2021/10/10 10:40:16;;;;;;;11.75;8.45;;;21.10;72.70;;;;;;5008407;28;20092;-68
2021/10/10 10:42:49;;;;;;;15.68;7.85;;;21.50;73.50;;;;;;5009337;28;20084;-72
2021/10/10 10:45:29;;;;;;;11.95;7.63;;;21.60;71.60;;;;;;5008585;28;20194;-67
2021/10/10 10:47:57;;;;;;;12.32;7.75;;;22.00;72.60;;;;;;5007359;28;20034;-68
2021/10/10 10:50:28;;;;;;;11.82;7.05;;;22.40;73.20;;;;;;5009652;28;20026;-68
2021/10/10 10:53:03;;;;;;;11.95;7.93;;;22.60;71.30;;;;;;5007735;28;20573;-68
2021/10/10 10:55:33;;;;;;;13.10;9.50;;;23.10;69.60;;;;;;5008267;28;20481;-68
2021/10/10 10:57:58;;;;;;;12.10;7.45;;;22.20;70.70;;;;;;5008766;28;20030;-68
2021/10/10 11:00:28;;;;;;;9.45;8.18;;;22.60;70.80;;;;;;5012994;28;20088;-69
2021/10/10 11:02:59;;;;;;;10.82;8.23;;;22.10;70.00;;;;;;5012636;28;20030;-67
2021/10/10 11:05:35;;;;;;;10.68;7.53;;;21.80;71.70;;;;;;5011482;28;20050;-68
2021/10/10 11:08:17;;;;;;;12.68;8.32;;;21.60;71.10;;;;;;5011093;28;20108;-67
2021/10/10 11:11:09;;;;;;;12.00;7.80;;;21.60;71.30;;;;;;5011460;28;20030;-72
2021/10/10 11:13:34;;;;;;;13.20;8.00;;;21.80;73.30;;;;;;5011797;28;20459;-68
2021/10/10 11:16:09;;;;;;;11.98;7.85;;;21.90;71.80;;;;;;5029637;28;20176;-68
2021/10/10 11:18:41;;;;;;;13.40;7.60;;;22.30;70.20;;;;;;5029994;28;20128;-70
2021/10/10 11:21:08;;;;;;;11.55;8.23;;;21.50;70.90;;;;;;5029762;28;20057;-70
2021/10/10 11:23:36;;;;;;;12.95;8.23;;;20.90;73.30;;;;;;5030262;28;20139;-69
2021/10/10 11:26:09;;;;;;;12.07;8.90;;;21.80;70.60;;;;;;5029831;28;20584;-69
2021/10/10 11:28:58;;;;;;;15.88;7.20;;;22.00;70.10;;;;;;5029712;28;20190;-69
2021/10/10 11:31:25;;;;;;;10.65;7.90;;;22.50;69.00;;;;;;5029841;28;20080;-68
2021/10/10 11:33:56;;;;;;;12.95;7.63;;;21.70;69.80;;;;;;5029306;28;20026;-70
2021/10/10 11:36:41;;;;;;;12.23;7.63;;;22.30;70.60;;;;;;5029657;28;20120;-68
2021/10/10 11:39:09;;;;;;;11.73;6.97;;;22.80;69.20;;;;;;5029324;28;20064;-68
2021/10/10 11:41:45;;;;;;;11.25;7.70;;;23.40;69.70;;;;;;5029913;28;20041;-68
2021/10/10 11:44:15;;;;;;;12.82;7.28;;;23.30;67.00;;;;;;5029442;28;20026;-68
2021/10/10 11:46:49;;;;;;;11.30;7.25;;;24.00;66.00;;;;;;5023250;28;20076;-69
2021/10/10 11:49:39;;;;;;;12.82;7.50;;;24.40;67.60;;;;;;5010807;28;20038;-70
2021/10/10 11:55:07;;;;;;;;;;;24.80;65.90;;;;;;5011638;28;20311;-69
2021/10/10 11:57:33;;;;;;;14.38;8.15;;;24.80;64.90;;;;;;5011893;28;20358;-68
2021/10/10 12:00:02;;;;;;;9.18;7.50;;;24.30;65.20;;;;;;5011178;28;20510;-68
2021/10/10 12:02:36;;;;;;;12.05;7.93;;;24.20;65.20;;;;;;5010644;28;20155;-67
2021/10/10 12:05:14;;;;;;;14.38;7.63;;;22.70;66.80;;;;;;5009468;28;20153;-68
2021/10/10 12:07:41;;;;;;;12.10;7.88;;;23.00;67.60;;;;;;5010737;28;20033;-68
2021/10/10 12:10:13;;;;;;;15.88;7.80;;;22.30;67.70;;;;;;5009888;28;20037;-68
2021/10/10 12:12:38;;;;;;;;;;;23.00;67.40;;;;;;5010850;28;20066;-67
2021/10/10 12:15:05;;;;;;;13.63;8.40;;;23.40;67.00;;;;;;5011141;28;19913;-68
2021/10/10 12:17:43;;;;;;;9.60;6.53;;;23.60;66.80;;;;;;5010250;28;20037;-68
2021/10/10 12:20:15;;;;;;;9.48;7.45;;;24.10;65.20;;;;;;5009448;28;20041;-68
2021/10/10 12:22:52;;;;;;;9.30;7.18;;;23.30;66.80;;;;;;5010284;28;20041;-69
2021/10/10 12:25:26;;;;;;;8.82;6.13;;;23.40;66.60;;;;;;5011857;28;20053;-68
2021/10/10 12:28:13;;;;;;;12.70;7.68;;;24.60;67.60;;;;;;5010975;28;20030;-68
2021/10/10 12:30:54;;;;;;;12.23;7.63;;;24.00;65.20;;;;;;5010157;28;20387;-68
2021/10/10 12:33:34;;;;;;;9.40;7.70;;;23.70;65.50;;;;;;5009731;28;20026;-69
2021/10/10 12:36:08;;;;;;;13.38;7.32;;;23.00;65.70;;;;;;5009619;28;20076;-69
2021/10/10 12:38:39;;;;;;;16.63;6.80;;;23.10;67.20;;;;;;5010910;28;20447;-69
2021/10/10 12:41:20;;;;;;;;;;;23.70;66.70;;;;;;5010705;28;20100;-69
2021/10/10 12:43:52;;;;;;;14.13;8.40;;;23.70;65.00;;;;;;5011395;28;19963;-68
2021/10/10 12:46:22;;;;;;;11.98;8.05;;;23.40;65.70;;;;;;5010243;28;20108;-68
2021/10/10 12:49:04;;;;;;;14.93;8.25;;;22.50;67.30;;;;;;5009659;28;20052;-68
2021/10/10 12:51:31;;;;;;;11.60;7.50;;;22.60;68.20;;;;;;5009349;28;20163;-68
2021/10/10 12:54:17;;;;;;;11.38;7.30;;;23.30;67.10;;;;;;5009027;28;20033;-68